** WELKOM OP ONZE WEBSITE MET ACTUELE WEERDATA VANUIT IZEGEM **
Het weer levert geen direct gevaar op.    Er zijn geen waarschuwingen afgegeven.

Weercam te Izegem Meer informatie Weercam te Izegem


Lokaal brand risico:
FWI


Regionaal brand risico: Meer informatie


Steun ons initiatief via een kleine donatie!



METAR rapporten vliegvelden

   
EBOS - Oostende Airport, Belgium
Afstand tot: NW 39 km
Gewijzigd: 25-05-2019 17:20
Licht bewolkt  
Licht bewolkt  
   Wind: WNW 9.3 km/h
Wind: WNW 9.3 km/h
Temperatuur: 16°C
Dauwpunt: 9°C
Vochtigheid: 63%
Barometer: 1018 hPa
Bewolking: Few Clouds
Zicht: meer dan 10 km
Bewolking: Licht bewolkt 2500 ft
EBOS 251520Z 30005KT 270V350 9999 FEW025 16/09 Q1018 NOSIG
LFQQ - Lille/Lesquin, France
Afstand tot: Z 40 km
Gewijzigd: 25-05-2019 17:00
Grotendeels bewolkt  
Grotendeels bewolkt  
   Wind: NW 20.4 km/h
Wind: NW 20.4 km/h
Temperatuur: 19°C
Dauwpunt: 10°C
Vochtigheid: 56%
Barometer: 1018 hPa
Bewolking: Mostly Cloudy
Zicht: meer dan 10 km
Bewolking: Gedeeltelijk bewolkt 4100 ft,
Grotendeels bewolkt 5200 ft
LFQQ 251500Z AUTO 31011KT 280V340 9999 SCT041 BKN052 19/10 Q1018 TEMPO 34015G25KT 3000 SHRA BKN050CB
EBFN - Koksijde (bel-Af, Belgium
Afstand tot: WNW 43 km
Gewijzigd: 25-05-2019 16:55
Helder  
Helder  
   Wind: NNW 9.3 km/h
Wind: NNW 9.3 km/h
Temperatuur: 17°C
Dauwpunt: 9°C
Vochtigheid: 59%
Barometer: 1018 hPa
Bewolking: Clear
Zicht: meer dan 10 km
Bewolking: Helder ft
EBFN 251455Z AUTO 33005KT 9999 NCD 17/09 Q1018 BLU
EBCV - Chievres Ab, Belgium
Afstand tot: ZO 59 km
Gewijzigd: 25-05-2019 17:17
Grotendeels bewolkt  
Grotendeels bewolkt  
   Wind: NNO 11.1 km/h
Wind: NNO 11.1 km/h
Temperatuur: 17°C
Dauwpunt: 12°C
Vochtigheid: 73%
Barometer: 1018 hPa
Bewolking: Mostly Cloudy
Zicht: 9 km
Bewolking: Licht bewolkt 3400 ft,
Grotendeels bewolkt 4200 ft,
Grotendeels bewolkt 9500 ft
EBCV 251517Z AUTO 03006KT 9000 FEW034/// BKN042/// BKN095/// 17/12 Q1018 BLU
EHFS - Vlissingen, Netherlands
Afstand tot: NNO 65 km
Gewijzigd: 25-05-2019 16:55
Helder  
Helder  
   Wind: Westen 18.5 km/h
Wind: Westen 18.5 km/h
Temperatuur: 17°C
Dauwpunt: 9°C
Vochtigheid: 59%
Barometer: 1017 hPa
Bewolking: Clear
Zicht: meer dan 10 km
Bewolking: Helder ft
EHFS 251455Z AUTO 27010KT 9999 NCD 17/09 Q1017 W///H///
EBBR - Brussels Nationa, Belgium
Afstand tot: O 91 km
Gewijzigd: 25-05-2019 17:20
Grotendeels bewolkt  
Grotendeels bewolkt  
   Wind: varieert 3.7 km/h
Wind: varieert 3.7 km/h
Temperatuur: 18°C
Dauwpunt: 13°C
Vochtigheid: 73%
Barometer: 1017 hPa
Bewolking: Mostly Cloudy
Zicht: meer dan 10 km
Bewolking: Grotendeels bewolkt 2600 ft
EBBR 251520Z VRB02KT 9999 BKN026TCU 18/13 Q1017 NOSIG
EBAW - Antwerp/Deurne, Belgium
Afstand tot: ONO 94 km
Gewijzigd: 25-05-2019 17:20
Light Showers, Neerslag, Gedeeltelijk bewolkt  
Light Showers, Neerslag, Gedeeltelijk bewolkt  
   Wind: NNW 7.4 km/h
Wind: NNW 7.4 km/h
Temperatuur: 17°C
Dauwpunt: 11°C
Vochtigheid: 68%
Barometer: 1017 hPa
Bewolking: Partly Cloudy
Zicht: meer dan 10 km
Bewolking: Gedeeltelijk bewolkt 3200 ft
EBAW 251520Z 34004KT 300V010 9999 -SHRA SCT032 17/11 Q1017 NOSIG
EHWO - Woensdrecht Rnla, Netherlands
Afstand tot: NO 98 km
Gewijzigd: 25-05-2019 16:55
Licht bewolkt  
Licht bewolkt  
   Wind: Westen 11.1 km/h
Wind: Westen 11.1 km/h
Temperatuur: 18°C
Dauwpunt: 11°C
Vochtigheid: 64%
Barometer: 1017 hPa
Bewolking: Few Clouds
Zicht: meer dan 10 km
Bewolking: Licht bewolkt 4500 ft
EHWO 251455Z AUTO 26006KT 200V010 9999 FEW045 18/11 Q1017 BLU
EBCI - Charleroi/Gossel, Belgium
Afstand tot: OZO 102 km
Gewijzigd: 25-05-2019 17:20
Gedeeltelijk bewolkt  
Gedeeltelijk bewolkt  
   Wind: ZZO 5.6 km/h
Wind: ZZO 5.6 km/h
Temperatuur: 14°C
Dauwpunt: 12°C
Vochtigheid: 88%
Barometer: 1018 hPa
Bewolking: Partly Cloudy
Zicht: meer dan 10 km
Bewolking: Gedeeltelijk bewolkt 2400 ft
EBCI 251520Z 15003KT 040V210 9999 SCT024CB 14/12 Q1018 RETS RETSRA RETSGS TEMPO 4000 SHRA

Script ontwikkeld door  Saratoga-weather.org Aangepast voor de template door  Weerstation Leuven